createdAt,value
2023-03-20T00:00:04.320Z,100.00
2023-03-20T00:02:38.635Z,100.00
2023-03-20T00:05:19.145Z,100.00
2023-03-20T00:07:49.589Z,100.00
2023-03-20T00:10:20.400Z,100.00
2023-03-20T00:12:51.989Z,100.00
2023-03-20T00:15:27.506Z,100.00
2023-03-20T00:17:57.132Z,100.00
2023-03-20T00:20:31.181Z,100.00
2023-03-20T00:23:00.723Z,100.00
2023-03-20T00:25:29.807Z,100.00
2023-03-20T00:27:59.522Z,100.00
2023-03-20T00:30:31.416Z,100.00
2023-03-20T00:33:00.822Z,100.00
2023-03-20T00:35:33.697Z,100.00
2023-03-20T00:38:02.839Z,100.00
2023-03-20T00:40:33.907Z,100.00
2023-03-20T00:43:04.997Z,100.00
2023-03-20T00:45:37.685Z,100.00
2023-03-20T00:48:08.025Z,100.00
2023-03-20T00:50:39.168Z,100.00
2023-03-20T00:53:08.397Z,100.00
2023-03-20T00:55:38.059Z,100.00
2023-03-20T00:58:09.474Z,100.00
2023-03-20T01:00:41.559Z,100.00
2023-03-20T01:03:17.371Z,100.00
2023-03-20T01:05:52.553Z,100.00
2023-03-20T01:08:23.712Z,100.00
2023-03-20T01:10:55.701Z,100.00
2023-03-20T01:13:27.801Z,100.00
2023-03-20T01:15:59.091Z,100.00
2023-03-20T01:18:29.381Z,100.00
2023-03-20T01:21:00.627Z,100.00
2023-03-20T01:23:29.583Z,100.00
2023-03-20T01:25:59.299Z,100.00
2023-03-20T01:28:34.851Z,100.00
2023-03-20T01:31:05.108Z,100.00
2023-03-20T01:33:35.023Z,100.00
2023-03-20T01:36:06.073Z,100.00
2023-03-20T01:38:35.416Z,100.00
2023-03-20T01:41:08.806Z,100.00
2023-03-20T01:43:40.525Z,100.00
2023-03-20T01:46:20.510Z,100.00
2023-03-20T01:49:30.360Z,100.00
2023-03-20T01:52:06.088Z,100.00
2023-03-20T01:54:39.902Z,100.00
2023-03-20T01:57:18.336Z,100.00
2023-03-20T01:59:51.381Z,100.00
2023-03-20T02:02:25.038Z,100.00
2023-03-20T02:05:02.420Z,100.00
2023-03-20T02:07:36.032Z,100.00
2023-03-20T02:10:10.505Z,100.00
2023-03-20T02:12:50.281Z,100.00
2023-03-20T02:15:29.414Z,100.00
2023-03-20T02:18:16.537Z,100.00
2023-03-20T02:20:56.063Z,100.00
2023-03-20T02:24:16.793Z,100.00
2023-03-20T02:27:04.081Z,100.00
2023-03-20T02:30:26.022Z,100.00
2023-03-20T02:33:47.105Z,100.00
2023-03-20T02:36:56.925Z,100.00
2023-03-20T02:39:45.146Z,100.00
2023-03-20T02:42:24.268Z,100.00
2023-03-20T02:45:05.623Z,100.00
2023-03-20T02:47:43.441Z,100.00
2023-03-20T02:50:28.815Z,100.00
2023-03-20T02:53:12.393Z,100.00
2023-03-20T02:55:50.843Z,100.00
2023-03-20T02:58:26.209Z,100.00
2023-03-20T03:01:02.958Z,100.00
2023-03-20T03:03:40.484Z,100.00
2023-03-20T03:06:18.037Z,100.00
2023-03-20T03:08:51.556Z,100.00
2023-03-20T03:11:23.879Z,100.00
2023-03-20T03:13:57.674Z,100.00
2023-03-20T03:16:29.942Z,100.00
2023-03-20T03:19:07.038Z,100.00
2023-03-20T03:21:39.051Z,100.00
2023-03-20T03:24:26.809Z,100.00
2023-03-20T03:27:09.318Z,100.00
2023-03-20T03:29:41.028Z,100.00
2023-03-20T03:32:24.791Z,100.00
2023-03-20T03:34:54.559Z,100.00
2023-03-20T03:37:30.264Z,100.00
2023-03-20T03:40:07.232Z,100.00
2023-03-20T03:42:41.734Z,100.00
2023-03-20T03:45:14.977Z,100.00
2023-03-20T03:47:47.775Z,100.00
2023-03-20T03:50:21.928Z,100.00
2023-03-20T03:52:53.544Z,100.00
2023-03-20T03:55:27.052Z,100.00
2023-03-20T03:58:12.482Z,100.00
2023-03-20T04:00:43.992Z,100.00
2023-03-20T04:03:14.200Z,100.00
2023-03-20T04:05:48.139Z,100.00
2023-03-20T04:08:17.712Z,100.00
2023-03-20T04:10:48.127Z,100.00
2023-03-20T04:13:18.854Z,100.00
2023-03-20T04:15:48.009Z,100.00
2023-03-20T04:18:19.688Z,100.00
2023-03-20T04:20:50.578Z,100.00
2023-03-20T04:23:19.676Z,100.00
2023-03-20T04:25:49.574Z,100.00
2023-03-20T04:28:19.918Z,100.00
2023-03-20T04:31:00.514Z,100.00
2023-03-20T04:33:48.347Z,100.00
2023-03-20T04:36:35.686Z,100.00
2023-03-20T04:39:07.654Z,100.00
2023-03-20T04:41:36.772Z,100.00
2023-03-20T04:44:07.442Z,100.00
2023-03-20T04:46:38.267Z,100.00
2023-03-20T04:49:16.334Z,100.00
2023-03-20T04:51:45.478Z,100.00
2023-03-20T04:54:16.569Z,100.00
2023-03-20T04:56:45.946Z,100.00
2023-03-20T04:59:20.664Z,100.00
2023-03-20T05:01:49.798Z,100.00
2023-03-20T05:04:19.059Z,100.00
2023-03-20T05:06:49.502Z,100.00
2023-03-20T05:09:21.310Z,100.00
2023-03-20T05:11:52.020Z,100.00
2023-03-20T05:14:55.577Z,100.00
2023-03-20T05:17:42.904Z,100.00
2023-03-20T05:20:30.356Z,100.00
2023-03-20T05:23:17.212Z,100.00
2023-03-20T05:26:07.683Z,100.00
2023-03-20T05:28:56.732Z,100.00
2023-03-20T05:31:40.176Z,100.00
2023-03-20T05:34:17.844Z,100.00
2023-03-20T05:37:09.317Z,100.00
2023-03-20T05:40:05.795Z,100.00
2023-03-20T05:42:44.527Z,100.00
2023-03-20T05:45:33.624Z,100.00
2023-03-20T05:48:16.327Z,100.00
2023-03-20T05:51:14.067Z,99.68
2023-03-20T05:53:57.022Z,97.48
2023-03-20T05:56:41.021Z,98.00
2023-03-20T05:59:23.758Z,91.58
2023-03-20T06:02:28.041Z,89.34
2023-03-20T06:05:10.559Z,84.62
2023-03-20T06:07:51.869Z,83.09
2023-03-20T06:10:22.504Z,81.21
2023-03-20T06:12:53.033Z,80.89
2023-03-20T06:15:26.958Z,75.81
2023-03-20T06:18:02.222Z,74.91
2023-03-20T06:20:33.124Z,75.84
2023-03-20T06:23:05.623Z,72.57
2023-03-20T06:25:35.329Z,70.28
2023-03-20T06:28:04.994Z,69.44
2023-03-20T06:30:34.252Z,67.38
2023-03-20T06:33:03.804Z,67.84
2023-03-20T06:35:42.703Z,67.05
2023-03-20T06:38:12.331Z,64.62
2023-03-20T06:40:41.974Z,64.69
2023-03-20T06:43:12.746Z,67.63
2023-03-20T06:45:49.558Z,66.67
2023-03-20T06:48:23.193Z,69.38
2023-03-20T06:50:54.929Z,69.10
2023-03-20T06:53:28.560Z,66.84
2023-03-20T06:56:07.320Z,65.42
2023-03-20T06:58:36.512Z,66.13
2023-03-20T07:01:11.134Z,66.64
2023-03-20T07:03:40.317Z,67.55
2023-03-20T07:06:13.748Z,68.02
2023-03-20T07:08:43.546Z,69.90
2023-03-20T07:11:13.353Z,71.85
2023-03-20T07:13:44.380Z,70.85
2023-03-20T07:16:24.207Z,70.05
2023-03-20T07:18:54.068Z,70.86
2023-03-20T07:21:25.308Z,70.04
2023-03-20T07:23:55.126Z,68.17
2023-03-20T07:26:24.196Z,69.04
2023-03-20T07:28:55.556Z,66.94
2023-03-20T07:31:31.406Z,66.14
2023-03-20T07:34:29.846Z,64.08
2023-03-20T07:37:02.525Z,63.08
2023-03-20T07:39:33.899Z,62.90
2023-03-20T07:42:29.897Z,62.25
2023-03-20T07:45:10.942Z,61.84
2023-03-20T07:47:40.075Z,60.12
2023-03-20T07:50:09.691Z,60.31
2023-03-20T07:52:40.542Z,58.67
2023-03-20T07:55:10.202Z,57.47
2023-03-20T07:57:39.450Z,58.05
2023-03-20T08:00:09.957Z,57.96
2023-03-20T08:02:41.690Z,56.46
2023-03-20T08:05:11.165Z,56.71
2023-03-20T08:07:41.820Z,56.80
2023-03-20T08:10:12.102Z,54.35
2023-03-20T08:12:42.240Z,52.28
2023-03-20T08:15:12.233Z,50.45
2023-03-20T08:17:44.260Z,50.45
2023-03-20T08:20:14.584Z,50.33
2023-03-20T08:22:46.627Z,49.33
2023-03-20T08:25:16.515Z,48.88
2023-03-20T08:27:45.750Z,48.98
2023-03-20T08:30:16.228Z,47.44
2023-03-20T08:32:45.343Z,47.15
2023-03-20T08:35:31.455Z,46.85
2023-03-20T08:38:04.216Z,47.50
2023-03-20T08:40:33.308Z,46.89
2023-03-20T08:43:02.399Z,45.54
2023-03-20T08:45:31.528Z,45.59
2023-03-20T08:48:01.130Z,43.29
2023-03-20T08:50:30.287Z,44.01
2023-03-20T08:52:59.388Z,44.27
2023-03-20T08:55:29.839Z,43.71
2023-03-20T08:58:00.111Z,43.27
2023-03-20T09:00:29.262Z,42.50
2023-03-20T09:02:58.701Z,42.46
2023-03-20T09:05:27.766Z,43.36
2023-03-20T09:07:56.804Z,41.92
2023-03-20T09:10:25.863Z,42.89
2023-03-20T09:12:56.506Z,41.42
2023-03-20T09:15:25.624Z,40.72
2023-03-20T09:17:55.481Z,39.87
2023-03-20T09:20:24.502Z,40.46
2023-03-20T09:22:53.539Z,39.91
2023-03-20T09:25:22.526Z,39.89
2023-03-20T09:27:55.464Z,39.37
2023-03-20T09:30:26.574Z,39.40
2023-03-20T09:32:56.145Z,38.89
2023-03-20T09:35:26.098Z,39.14
2023-03-20T09:37:55.496Z,39.83
2023-03-20T09:40:28.595Z,38.48
2023-03-20T09:43:09.076Z,38.06
2023-03-20T09:45:53.277Z,38.28
2023-03-20T09:48:30.186Z,38.19
2023-03-20T09:51:08.894Z,37.24
2023-03-20T09:53:42.054Z,35.76
2023-03-20T09:56:17.551Z,37.92
2023-03-20T09:58:55.020Z,36.50
2023-03-20T10:01:31.105Z,34.14
2023-03-20T10:04:06.049Z,34.78
2023-03-20T10:06:35.633Z,33.43
2023-03-20T10:09:11.680Z,35.01
2023-03-20T10:12:07.035Z,34.51
2023-03-20T10:14:47.314Z,33.86
2023-03-20T10:17:29.438Z,33.35
2023-03-20T10:20:11.687Z,33.89
2023-03-20T10:22:46.986Z,34.54
2023-03-20T10:25:26.051Z,33.25
2023-03-20T10:28:00.540Z,34.44
2023-03-20T10:30:47.684Z,32.84
2023-03-20T10:33:40.662Z,32.79
2023-03-20T10:36:30.572Z,32.00
2023-03-20T10:39:04.777Z,32.67
2023-03-20T10:41:37.664Z,31.60
2023-03-20T10:44:08.497Z,32.21
2023-03-20T10:46:44.967Z,31.98
2023-03-20T10:49:21.451Z,31.76
2023-03-20T10:51:54.845Z,30.83
2023-03-20T10:54:28.571Z,30.25
2023-03-20T10:57:00.728Z,30.74
2023-03-20T10:59:35.574Z,31.17
2023-03-20T11:02:10.147Z,30.14
2023-03-20T11:04:41.466Z,30.45
2023-03-20T11:07:21.004Z,31.04
2023-03-20T11:10:10.717Z,29.92
2023-03-20T11:12:42.121Z,30.26
2023-03-20T11:15:26.026Z,29.95
2023-03-20T11:17:57.255Z,30.14
2023-03-20T11:20:35.563Z,29.83
2023-03-20T11:23:06.802Z,28.04
2023-03-20T11:25:43.417Z,27.85
2023-03-20T11:28:27.014Z,27.23
2023-03-20T11:31:04.932Z,26.20
2023-03-20T11:33:39.253Z,27.30
2023-03-20T11:36:28.033Z,26.26
2023-03-20T11:39:06.919Z,27.27
2023-03-20T11:41:36.402Z,27.00
2023-03-20T11:44:06.669Z,26.59
2023-03-20T11:46:36.477Z,26.98
2023-03-20T11:49:22.836Z,26.42
2023-03-20T11:51:54.062Z,26.38
2023-03-20T11:54:26.556Z,26.39
2023-03-20T11:56:57.464Z,24.98
2023-03-20T11:59:32.354Z,26.34
2023-03-20T12:02:03.935Z,25.81
2023-03-20T12:04:34.911Z,25.64
2023-03-20T12:07:13.512Z,26.02
2023-03-20T12:09:47.689Z,26.10
2023-03-20T12:12:26.441Z,25.71
2023-03-20T12:15:05.685Z,25.16
2023-03-20T12:17:45.746Z,25.98
2023-03-20T12:20:29.547Z,25.93
2023-03-20T12:23:08.311Z,26.61
2023-03-20T12:25:42.328Z,26.25
2023-03-20T12:28:20.410Z,25.87
2023-03-20T12:31:01.737Z,25.33
2023-03-20T12:33:43.566Z,25.97
2023-03-20T12:36:16.863Z,24.33
2023-03-20T12:38:48.240Z,24.13
2023-03-20T12:41:25.614Z,23.58
2023-03-20T12:44:30.472Z,23.36
2023-03-20T12:47:14.006Z,22.72
2023-03-20T12:49:52.372Z,22.60
2023-03-20T12:52:30.980Z,22.88
2023-03-20T12:55:13.523Z,22.79
2023-03-20T12:57:53.257Z,23.27
2023-03-20T13:00:29.939Z,22.38
2023-03-20T13:03:08.799Z,22.63
2023-03-20T13:05:47.631Z,22.83
2023-03-20T13:08:40.453Z,23.88
2023-03-20T13:11:22.477Z,23.63
2023-03-20T13:13:56.860Z,23.64
2023-03-20T13:16:40.678Z,24.80
2023-03-20T13:19:16.262Z,25.70
2023-03-20T13:21:56.908Z,25.38
2023-03-20T13:24:37.252Z,26.00
2023-03-20T13:27:22.427Z,26.39
2023-03-20T13:29:57.503Z,27.03
2023-03-20T13:32:42.886Z,26.97
2023-03-20T13:35:36.146Z,27.37
2023-03-20T13:38:17.229Z,26.69
2023-03-20T13:40:49.555Z,27.78
2023-03-20T13:43:33.362Z,27.51
2023-03-20T13:46:09.003Z,28.10
2023-03-20T13:48:39.507Z,28.02
2023-03-20T13:51:20.213Z,28.25
2023-03-20T13:54:03.246Z,28.53
2023-03-20T13:56:42.916Z,28.14
2023-03-20T13:59:37.496Z,27.67
2023-03-20T14:02:25.807Z,28.32
2023-03-20T14:05:06.217Z,28.01
2023-03-20T14:07:37.615Z,27.89
2023-03-20T14:10:39.677Z,28.12
2023-03-20T14:13:15.923Z,27.49
2023-03-20T14:15:54.605Z,27.58
2023-03-20T14:18:26.704Z,27.94
2023-03-20T14:20:58.686Z,27.83
2023-03-20T14:23:36.676Z,28.17
2023-03-20T14:26:20.692Z,27.96
2023-03-20T14:29:00.359Z,28.68
2023-03-20T14:31:34.523Z,28.39
2023-03-20T14:34:19.387Z,28.67
2023-03-20T14:36:54.583Z,29.28
2023-03-20T14:39:37.854Z,28.45
2023-03-20T14:42:14.726Z,29.04
2023-03-20T14:45:01.761Z,29.34
2023-03-20T14:47:41.314Z,30.06
2023-03-20T14:50:16.672Z,29.78
2023-03-20T14:52:57.263Z,29.66
2023-03-20T14:55:35.671Z,29.51
2023-03-20T14:58:07.643Z,29.92
2023-03-20T15:00:47.092Z,30.04
2023-03-20T15:03:19.182Z,30.73
2023-03-20T15:05:49.438Z,31.85
2023-03-20T15:08:25.798Z,32.10
2023-03-20T15:10:58.402Z,32.77
2023-03-20T15:13:28.713Z,34.31
2023-03-20T15:16:00.271Z,34.40
2023-03-20T15:18:31.077Z,34.33
2023-03-20T15:21:00.262Z,34.83
2023-03-20T15:23:29.687Z,33.71
2023-03-20T15:26:02.552Z,32.62
2023-03-20T15:28:33.136Z,33.52
2023-03-20T15:31:02.954Z,33.90
2023-03-20T15:33:36.838Z,33.94
2023-03-20T15:36:11.341Z,35.30
2023-03-20T15:38:41.154Z,35.41
2023-03-20T15:41:26.482Z,35.03
2023-03-20T15:43:55.935Z,34.92
2023-03-20T15:46:28.184Z,34.33
2023-03-20T15:49:00.568Z,35.54
2023-03-20T15:51:30.086Z,35.70
2023-03-20T15:53:59.384Z,35.98
2023-03-20T15:56:29.292Z,35.64
2023-03-20T15:58:59.125Z,35.81
2023-03-20T16:01:33.065Z,36.52
2023-03-20T16:04:03.838Z,36.68
2023-03-20T16:06:32.989Z,37.40
2023-03-20T16:09:04.103Z,38.11
2023-03-20T16:11:39.395Z,38.84
2023-03-20T16:14:14.074Z,38.98
2023-03-20T16:16:43.613Z,38.77
2023-03-20T16:19:16.563Z,39.35
2023-03-20T16:21:51.908Z,39.94
2023-03-20T16:24:25.999Z,40.37
2023-03-20T16:26:55.687Z,41.27
2023-03-20T16:29:28.922Z,42.01
2023-03-20T16:32:01.125Z,42.25
2023-03-20T16:34:38.083Z,43.17
2023-03-20T16:37:10.988Z,44.36
2023-03-20T16:39:40.366Z,44.48
2023-03-20T16:42:25.098Z,45.25
2023-03-20T16:44:57.418Z,44.07
2023-03-20T16:47:36.382Z,43.75
2023-03-20T16:50:14.313Z,47.20
2023-03-20T16:52:48.211Z,48.45
2023-03-20T16:55:23.079Z,49.17
2023-03-20T16:57:56.218Z,48.89
2023-03-20T17:00:27.553Z,49.72
2023-03-20T17:03:15.372Z,49.75
2023-03-20T17:05:50.874Z,49.47
2023-03-20T17:08:28.817Z,50.63
2023-03-20T17:11:00.851Z,52.17
2023-03-20T17:13:30.140Z,51.66
2023-03-20T17:16:00.112Z,51.02
2023-03-20T17:18:31.300Z,50.32
2023-03-20T17:21:02.025Z,50.39
2023-03-20T17:23:36.750Z,50.15
2023-03-20T17:26:07.822Z,50.67
2023-03-20T17:28:38.341Z,50.24
2023-03-20T17:31:08.329Z,50.13
2023-03-20T17:33:37.823Z,51.83
2023-03-20T17:36:17.599Z,52.43
2023-03-20T17:38:46.976Z,51.90
2023-03-20T17:41:18.163Z,51.55
2023-03-20T17:43:47.952Z,51.84
2023-03-20T17:46:20.760Z,52.49
2023-03-20T17:48:51.667Z,52.33
2023-03-20T17:51:23.457Z,53.34
2023-03-20T17:53:55.652Z,53.79
2023-03-20T17:56:29.398Z,53.76
2023-03-20T17:58:58.930Z,55.43
2023-03-20T18:01:32.714Z,55.71
2023-03-20T18:04:02.263Z,55.84
2023-03-20T18:06:34.862Z,57.48
2023-03-20T18:09:06.043Z,57.96
2023-03-20T18:11:35.355Z,57.72
2023-03-20T18:14:06.982Z,58.38
2023-03-20T18:16:36.474Z,58.20
2023-03-20T18:19:05.887Z,57.43
2023-03-20T18:21:37.075Z,56.94
2023-03-20T18:24:07.871Z,58.30
2023-03-20T18:26:37.717Z,59.08
2023-03-20T18:29:07.744Z,60.00
2023-03-20T18:31:37.352Z,60.07
2023-03-20T18:34:07.387Z,59.14
2023-03-20T18:36:38.137Z,59.46
2023-03-20T18:39:07.699Z,58.58
2023-03-20T18:41:37.027Z,59.07
2023-03-20T18:44:06.418Z,58.53
2023-03-20T18:46:35.674Z,55.76
2023-03-20T18:49:05.684Z,55.27
2023-03-20T18:51:35.281Z,55.18
2023-03-20T18:54:06.009Z,55.45
2023-03-20T18:56:37.266Z,55.96
2023-03-20T18:59:08.760Z,56.75
2023-03-20T19:01:38.176Z,56.38
2023-03-20T19:04:07.582Z,56.78
2023-03-20T19:06:36.857Z,58.29
2023-03-20T19:09:07.856Z,56.01
2023-03-20T19:11:36.918Z,58.15
2023-03-20T19:14:07.266Z,56.95
2023-03-20T19:16:38.342Z,59.55
2023-03-20T19:19:09.770Z,60.29
2023-03-20T19:21:38.980Z,62.25
2023-03-20T19:24:10.854Z,62.51
2023-03-20T19:26:40.835Z,61.79
2023-03-20T19:29:14.181Z,68.20
2023-03-20T19:31:43.379Z,63.31
2023-03-20T19:34:38.937Z,62.85
2023-03-20T19:37:01.711Z,60.97
2023-03-20T19:39:32.205Z,61.28
2023-03-20T19:42:29.336Z,60.79
2023-03-20T19:44:51.240Z,60.66
2023-03-20T19:47:20.857Z,62.10
2023-03-20T19:49:50.148Z,62.01
2023-03-20T19:52:28.826Z,62.54
2023-03-20T19:55:03.014Z,63.14
2023-03-20T19:57:32.801Z,64.27
2023-03-20T20:00:50.588Z,64.61
2023-03-20T20:02:51.190Z,64.79
2023-03-20T20:05:24.068Z,64.71
2023-03-20T20:08:22.580Z,66.40
2023-03-20T20:10:45.873Z,66.92
2023-03-20T20:13:19.220Z,65.78
2023-03-20T20:15:50.037Z,66.40
2023-03-20T20:18:20.550Z,66.68
2023-03-20T20:22:00.030Z,68.34
2023-03-20T20:23:39.949Z,69.82
2023-03-20T20:26:10.754Z,70.44
2023-03-20T20:28:43.486Z,71.28
2023-03-20T20:31:12.527Z,71.21
2023-03-20T20:33:42.721Z,71.75
2023-03-20T20:37:18.323Z,72.39
2023-03-20T20:39:02.995Z,72.88
2023-03-20T20:41:33.483Z,73.25
2023-03-20T20:44:15.668Z,73.39
2023-03-20T20:46:45.827Z,73.31
2023-03-20T20:49:19.551Z,75.48
2023-03-20T20:51:49.948Z,76.83
2023-03-20T20:54:19.143Z,77.63
2023-03-20T20:56:49.553Z,77.61
2023-03-20T20:59:18.577Z,78.72
2023-03-20T21:01:48.028Z,78.11
2023-03-20T21:04:17.344Z,79.31
2023-03-20T21:09:35.787Z,82.42
2023-03-20T21:12:08.256Z,80.57
2023-03-20T21:14:37.452Z,79.72
2023-03-20T21:17:07.191Z,78.83
2023-03-20T21:19:37.795Z,77.61
2023-03-20T21:22:08.313Z,77.74
2023-03-20T21:24:38.170Z,82.26
2023-03-20T21:27:11.165Z,82.00
2023-03-20T21:29:44.517Z,81.52
2023-03-20T21:32:15.393Z,81.16
2023-03-20T21:34:44.580Z,83.08
2023-03-20T21:38:13.199Z,82.05
2023-03-20T21:40:10.248Z,83.60
2023-03-20T21:42:40.720Z,83.82
2023-03-20T21:46:10.834Z,83.95
2023-03-20T21:48:37.855Z,84.85
2023-03-20T21:51:28.300Z,85.76
2023-03-20T21:54:46.103Z,86.99
2023-03-20T21:57:09.586Z,87.75
2023-03-20T21:59:50.956Z,87.96
2023-03-20T22:02:20.224Z,90.09
2023-03-20T22:05:52.866Z,88.36
2023-03-20T22:08:49.594Z,87.25
2023-03-20T22:17:17.596Z,91.13
2023-03-20T22:25:25.872Z,88.53
2023-03-20T22:28:13.027Z,87.63
2023-03-20T22:31:16.245Z,87.35
2023-03-20T22:47:20.134Z,88.64
2023-03-20T22:49:50.729Z,89.63
2023-03-20T22:52:29.462Z,89.76
2023-03-20T22:55:04.056Z,91.43
2023-03-20T22:57:42.394Z,91.97
2023-03-20T23:00:17.636Z,91.83
2023-03-20T23:02:47.697Z,92.98
2023-03-20T23:05:38.007Z,93.43
2023-03-20T23:08:26.029Z,94.92
2023-03-20T23:10:56.447Z,92.31
2023-03-20T23:13:25.447Z,92.80
2023-03-20T23:15:55.091Z,92.88
2023-03-20T23:18:24.229Z,93.63
2023-03-20T23:20:58.937Z,95.19
2023-03-20T23:23:28.958Z,96.81
2023-03-20T23:26:05.300Z,96.20
2023-03-20T23:28:34.480Z,95.37
2023-03-20T23:31:10.748Z,95.17
2023-03-20T23:33:41.661Z,94.56
2023-03-20T23:36:25.033Z,94.89
2023-03-20T23:39:02.666Z,95.65
2023-03-20T23:41:58.015Z,97.46
2023-03-20T23:44:21.229Z,98.37
2023-03-20T23:46:50.809Z,99.02
2023-03-20T23:49:20.310Z,99.54
2023-03-20T23:51:50.882Z,100.00
2023-03-20T23:54:20.986Z,100.00
2023-03-20T23:56:49.989Z,100.00
2023-03-20T23:59:21.955Z,100.00
